Lodi, Arkansas
Current Conditions -  °F | °C
As of 12:10 PM on Sunday 25 Jan 2015 (Local Time) from KMWT Reporting Station
Haze Haze  
Wind Chill: 58°   Ceiling: 5500
Heat Index: 58°   Visibility: 1.2mi
Dew Point: 33°   Wind: 14mph
Humidity: 39%   Direction: 300°WNW
Pressure: 29.78"   Gusts: 28mph
Location:  34.3099°N, 93.5952°W
Report Text: KMWT 251810Z AUTO 30012G24KT 270V350 1 1/4SM HZ BKN055 14/01 A2978 RMK AO2 PK WND 33027/1800 VIS 3/4V2 1/2 T01440006
Loading
Personal Weather Stations






























Interactive Weather Map New forecast layout! Learn more

10-Day Weather Forecast

Advertisements
Track Severe Weather on mobile